Lindenberg, Germany

7:58 AM CET on March 23, 2017 (GMT +0100)
Karl-Marx-Damm | | Change Station

Elev 141 ft 52.27 °N, 14.06 °E | Updated 3 minutes ago

Overcast
Overcast
43.9 °F
Feels Like 44 °F
N
0.6
Wind Variable Wind from NNW
Gusts 1.2 mph

Today
High -- | Low -- °F
--% Chance of Precip.
Yesterday
High -- | Low -- °F
Precip. -- in
Pressure 30.09 in
Visibility 6.2 miles
Clouds Mostly Cloudy 4600 ft
Windchill 44 °F
Dew Point 37 °F
Humidity 76%
Rainfall 0.00 in
Snow Depth Not available.
5:58 AM 6:22 PM
Waning Crescent, 25% visible
METAR EDDB 230650Z 07007KT 9999 -RA BKN046 06/02 Q1019 NOSIG
Pressure 30.09 in
Visibility 6.2 miles
Clouds Mostly Cloudy 4600 ft
Windchill 44 °F
Dew Point 37 °F
Humidity 76%
Rainfall 0.00 in
Snow Depth Not available.
5:58 AM 6:22 PM
Waning Crescent, 25% visible
METAR EDDB 230650Z 07007KT 9999 -RA BKN046 06/02 Q1019 NOSIG

Get Severe Weather Alerts

Thanks for signing up!

Be on the lookout for a verification email in your inbox.

You'll start receiving the daily forecast at 8 AM.

×

10-Day Weather Forecast

×

Almanac

Astronomy

Mar. 23, 2017 Rise Set
Actual Time
Civil Twilight
Nautical Twilight
Astronomical Twilight
Moon
Length of Visible Light
Length of Day
Tomorrow will be .
, % of the Moon is Illuminated

Today's Extremes

Country Highs Country Lows

Community

WunderPhotos

Upload Photos

1,962,540 photos uploaded!

WunderBlog® & News

Nearby

Air Quality

  Air Quality AQ Index Pollutant
Not available.

Snow Depth

Station Depth Elevation

Earthquake Activity

City Distance Mag. Time & Date
Minimum magnitude displayed is 2.5.

Earthquake Activity

City Distance Mag. Time & Date
Minimum magnitude displayed is 2.5.

Coastal Water Temperatures

Place Temperature

Stations

Nearby Weather Stations

Station Location Temp. Windchill Dew Point Humidity Wind Precip. Elev Updated Type